Time;durP1;ratioP1;P1;durP2;ratioP2;P2;SDS_P1;SDS_P2;PMS_P1;PMS_P2;Temp;Humidity;BMP_temperature;BMP_pressure;BME280_temperature;BME280_humidity;BME280_pressure;Samples;Min_cycle;Max_cycle;Signal;HPM_P1;HPM_P2
2022/07/01 00:01:41;;;;;;;1.92;0.88;;;15.60;99.90;;;;;;5045406;28;20483;-79
2022/07/01 00:04:06;;;;;;;2.55;1.02;;;15.60;99.90;;;;;;5060273;28;20048;-78
2022/07/01 00:06:32;;;;;;;2.97;1.00;;;15.60;99.90;;;;;;5042592;28;20109;-77
2022/07/01 00:08:58;;;;;;;1.65;0.80;;;15.60;99.90;;;;;;5044038;28;20044;-78
2022/07/01 00:11:24;;;;;;;3.28;0.90;;;15.60;99.90;;;;;;5044072;28;20045;-79
2022/07/01 00:13:50;;;;;;;1.98;0.80;;;15.60;99.90;;;;;;5059437;28;20040;-79
2022/07/01 00:16:15;;;;;;;2.63;0.90;;;15.60;99.90;;;;;;5029165;28;20048;-78
2022/07/01 00:18:43;;;;;;;1.55;0.70;;;15.60;99.90;;;;;;5059485;28;20037;-79
2022/07/01 00:21:09;;;;;;;1.65;0.77;;;15.60;99.90;;;;;;5059608;28;20547;-79
2022/07/01 00:23:35;;;;;;;1.23;0.82;;;15.60;99.90;;;;;;5043306;28;20182;-80
2022/07/01 00:26:00;;;;;;;2.25;0.88;;;15.60;99.90;;;;;;5043047;28;20502;-79
2022/07/01 00:28:26;;;;;;;3.28;0.82;;;15.60;99.90;;;;;;5011930;28;20090;-78
2022/07/01 00:30:52;;;;;;;2.08;0.80;;;15.60;99.90;;;;;;5042108;28;20083;-79
2022/07/01 00:33:18;;;;;;;3.28;0.90;;;15.60;99.90;;;;;;5059553;28;20126;-79
2022/07/01 00:35:44;;;;;;;1.80;0.65;;;15.60;99.90;;;;;;5034996;28;20052;-78
2022/07/01 00:38:10;;;;;;;2.05;0.82;;;15.60;99.90;;;;;;5042244;28;20507;-79
2022/07/01 00:40:35;;;;;;;1.92;0.60;;;15.70;99.90;;;;;;5058701;28;20067;-78
2022/07/01 00:43:02;;;;;;;1.05;0.60;;;15.70;99.90;;;;;;5059930;28;20135;-79
2022/07/01 00:45:27;;;;;;;1.92;0.70;;;15.70;99.90;;;;;;5059225;28;20708;-78
2022/07/01 00:47:53;;;;;;;1.77;0.70;;;15.70;99.90;;;;;;5042267;28;20123;-79
2022/07/01 00:50:19;;;;;;;1.00;0.70;;;15.70;99.90;;;;;;5058607;28;20120;-79
2022/07/01 00:52:47;;;;;;;1.63;0.70;;;15.70;99.90;;;;;;5050235;28;20040;-78
2022/07/01 00:55:14;;;;;;;0.82;0.60;;;15.70;99.90;;;;;;5057760;28;20052;-79
2022/07/01 00:57:42;;;;;;;1.00;0.70;;;15.70;99.90;;;;;;5058056;28;20064;-78
2022/07/01 01:00:11;;;;;;;0.75;0.60;;;15.70;99.90;;;;;;5044041;28;20465;-79
2022/07/01 01:02:37;;;;;;;2.28;0.80;;;15.70;99.90;;;;;;5043342;28;20055;-78
2022/07/01 01:05:04;;;;;;;1.83;0.80;;;15.70;99.90;;;;;;5042973;28;20056;-78
2022/07/01 01:07:31;;;;;;;0.90;0.60;;;15.70;99.90;;;;;;5060026;28;20786;-79
2022/07/01 01:09:59;;;;;;;2.45;0.60;;;15.70;99.90;;;;;;5029700;28;20482;-79
2022/07/01 01:12:26;;;;;;;1.60;0.50;;;15.70;99.90;;;;;;5047960;28;20097;-78
2022/07/01 01:14:52;;;;;;;1.85;0.50;;;15.70;99.90;;;;;;5060092;28;20051;-79
2022/07/01 01:17:18;;;;;;;0.77;0.70;;;15.60;99.90;;;;;;5042004;28;20877;-78
2022/07/01 01:19:45;;;;;;;0.93;0.60;;;15.60;99.90;;;;;;5059746;28;20048;-79
2022/07/01 01:22:14;;;;;;;0.88;0.60;;;15.60;99.90;;;;;;5059428;28;20051;-80
2022/07/01 01:24:41;;;;;;;0.95;0.50;;;15.60;99.90;;;;;;5058931;28;20131;-79
2022/07/01 01:27:08;;;;;;;1.00;0.60;;;15.60;99.90;;;;;;5044624;28;20087;-79
2022/07/01 01:29:36;;;;;;;1.23;0.50;;;15.60;99.90;;;;;;5058016;28;20049;-79
2022/07/01 01:32:06;;;;;;;2.45;0.70;;;15.60;99.90;;;;;;5058572;28;20097;-79
2022/07/01 01:34:36;;;;;;;1.35;1.00;;;15.60;99.90;;;;;;5057671;28;20071;-80
2022/07/01 01:37:04;;;;;;;1.85;0.70;;;15.60;99.90;;;;;;5044347;28;22351;-79
2022/07/01 01:39:30;;;;;;;0.70;0.50;;;15.60;99.90;;;;;;5058455;28;20048;-79
2022/07/01 01:41:56;;;;;;;1.13;0.60;;;15.60;99.90;;;;;;5050920;28;20058;-79
2022/07/01 01:44:21;;;;;;;0.55;0.50;;;15.60;99.90;;;;;;5059039;28;20074;-80
2022/07/01 01:46:47;;;;;;;1.92;0.55;;;15.60;99.90;;;;;;5045223;28;20051;-79
2022/07/01 01:49:13;;;;;;;2.20;0.80;;;15.60;99.90;;;;;;5042877;28;20045;-79
2022/07/01 01:51:39;;;;;;;1.67;0.73;;;15.60;99.90;;;;;;5040105;28;20349;-79
2022/07/01 01:54:05;;;;;;;2.53;0.77;;;15.70;99.90;;;;;;5040932;28;20040;-79
2022/07/01 01:56:30;;;;;;;1.15;0.70;;;15.70;99.90;;;;;;5057875;28;20090;-79
2022/07/01 01:58:58;;;;;;;2.00;0.80;;;15.70;99.90;;;;;;5043047;28;20072;-79
2022/07/01 02:01:24;;;;;;;2.67;0.70;;;15.70;99.90;;;;;;5044033;28;20048;-79
2022/07/01 02:03:53;;;;;;;1.67;0.80;;;15.70;99.90;;;;;;5033048;28;20052;-80
2022/07/01 02:06:20;;;;;;;2.47;0.90;;;15.70;99.90;;;;;;5039076;28;20509;-79
2022/07/01 02:08:46;;;;;;;2.25;0.90;;;15.80;99.90;;;;;;5042882;28;20394;-79
2022/07/01 02:11:12;;;;;;;2.25;0.90;;;15.80;99.90;;;;;;5048491;28;20048;-79
2022/07/01 02:13:38;;;;;;;2.08;0.85;;;15.80;99.90;;;;;;5053513;28;20061;-79
2022/07/01 02:16:04;;;;;;;1.63;0.80;;;15.80;99.90;;;;;;5036728;28;20460;-79
2022/07/01 02:18:32;;;;;;;3.50;1.15;;;15.80;99.90;;;;;;5044760;28;20049;-79
2022/07/01 02:21:00;;;;;;;2.17;0.90;;;15.90;99.90;;;;;;5045835;28;20040;-79
2022/07/01 02:23:26;;;;;;;2.20;0.90;;;15.90;99.90;;;;;;5062657;28;20059;-79
2022/07/01 02:25:52;;;;;;;3.95;1.10;;;16.00;99.90;;;;;;5046871;28;20048;-80
2022/07/01 02:28:17;;;;;;;2.63;0.85;;;16.00;99.90;;;;;;5062897;28;20128;-78
2022/07/01 02:30:43;;;;;;;4.57;1.30;;;16.00;99.90;;;;;;5062376;28;20068;-79
2022/07/01 02:33:09;;;;;;;4.45;1.08;;;16.00;99.90;;;;;;5062082;28;20043;-79
2022/07/01 02:35:37;;;;;;;1.83;0.90;;;16.00;99.90;;;;;;5045031;28;20051;-79
2022/07/01 02:38:04;;;;;;;2.75;0.88;;;16.00;99.90;;;;;;5052446;28;20048;-79
2022/07/01 02:40:30;;;;;;;2.35;0.75;;;16.00;99.90;;;;;;5060537;28;20048;-80
2022/07/01 02:42:56;;;;;;;3.28;0.88;;;16.00;99.90;;;;;;5049146;28;20415;-79
2022/07/01 02:45:24;;;;;;;4.70;0.90;;;16.00;99.90;;;;;;5045381;28;20061;-80
2022/07/01 02:47:50;;;;;;;4.15;1.10;;;16.00;99.90;;;;;;5046505;28;20052;-79
2022/07/01 02:50:18;;;;;;;3.50;1.13;;;16.00;99.90;;;;;;5035292;28;20403;-79
2022/07/01 02:52:44;;;;;;;3.72;1.02;;;16.00;99.90;;;;;;5051381;28;20123;-79
2022/07/01 02:55:13;;;;;;;2.72;0.82;;;16.00;99.90;;;;;;5044650;28;20040;-80
2022/07/01 02:57:39;;;;;;;2.65;1.00;;;16.00;99.90;;;;;;5066782;28;20066;-79
2022/07/01 03:00:08;;;;;;;2.67;0.98;;;16.00;99.90;;;;;;5029185;28;20049;-79
2022/07/01 03:02:34;;;;;;;3.28;1.20;;;16.00;99.90;;;;;;5044240;28;20059;-79
2022/07/01 03:05:00;;;;;;;3.75;0.98;;;16.00;99.90;;;;;;5030108;28;20044;-79
2022/07/01 03:07:26;;;;;;;3.58;1.13;;;16.00;99.90;;;;;;5061608;28;20807;-79
2022/07/01 03:09:52;;;;;;;5.28;1.00;;;15.90;99.90;;;;;;5079783;28;20044;-79
2022/07/01 03:12:24;;;;;;;4.32;0.90;;;15.90;99.90;;;;;;5051330;28;20048;-79
2022/07/01 03:14:53;;;;;;;3.92;0.80;;;15.90;99.90;;;;;;5060290;28;20113;-79
2022/07/01 03:17:20;;;;;;;3.92;1.00;;;15.90;99.90;;;;;;5062014;28;20098;-79
2022/07/01 03:19:46;;;;;;;2.80;1.35;;;15.90;99.90;;;;;;5045005;28;20597;-79
2022/07/01 03:22:12;;;;;;;2.83;1.25;;;15.90;99.90;;;;;;5068377;28;20046;-79
2022/07/01 03:24:37;;;;;;;8.02;1.23;;;15.90;99.90;;;;;;5062343;28;20127;-79
2022/07/01 03:27:03;;;;;;;4.03;1.00;;;15.90;99.90;;;;;;5027720;28;20036;-80
2022/07/01 03:29:29;;;;;;;1.92;0.80;;;15.90;99.90;;;;;;5044819;28;20054;-79
2022/07/01 03:31:55;;;;;;;2.13;0.80;;;15.90;99.90;;;;;;5062490;28;20048;-79
2022/07/01 03:34:21;;;;;;;2.80;0.90;;;15.90;99.90;;;;;;5060603;28;20050;-79
2022/07/01 03:36:47;;;;;;;1.80;0.80;;;15.90;99.90;;;;;;5042629;28;20495;-79
2022/07/01 03:39:13;;;;;;;3.15;1.00;;;15.80;99.90;;;;;;5045561;28;20917;-79
2022/07/01 03:41:39;;;;;;;4.85;1.15;;;15.80;99.90;;;;;;5043740;28;20495;-79
2022/07/01 03:44:05;;;;;;;5.28;1.30;;;15.80;99.90;;;;;;5028577;28;20052;-79
2022/07/01 03:46:31;;;;;;;3.05;1.05;;;15.80;99.90;;;;;;5044371;28;20047;-80
2022/07/01 03:49:01;;;;;;;6.05;1.00;;;15.70;99.90;;;;;;5062930;28;20040;-80
2022/07/01 03:51:26;;;;;;;3.83;0.90;;;15.70;99.90;;;;;;5054416;28;20186;-80
2022/07/01 03:56:36;;;;;;;4.00;1.08;;;15.70;99.90;;;;;;5045183;28;20169;-80
2022/07/01 03:59:02;;;;;;;3.22;0.90;;;15.70;99.90;;;;;;5059015;28;20144;-79
2022/07/01 04:01:28;;;;;;;6.50;1.42;;;15.70;99.90;;;;;;5059929;28;20047;-80
2022/07/01 04:03:54;;;;;;;4.53;1.17;;;15.70;99.90;;;;;;5026828;28;20036;-80
2022/07/01 04:06:20;;;;;;;3.30;1.00;;;15.70;99.90;;;;;;5045306;28;20048;-80
2022/07/01 04:08:49;;;;;;;6.32;1.67;;;15.70;99.90;;;;;;5059848;28;20120;-79
2022/07/01 04:11:16;;;;;;;4.55;1.05;;;15.70;99.90;;;;;;5046253;28;20127;-79
2022/07/01 04:13:46;;;;;;;5.53;1.60;;;15.80;99.90;;;;;;5045244;28;20040;-79
2022/07/01 04:16:12;;;;;;;3.58;0.95;;;15.70;99.90;;;;;;5045656;28;20048;-79
2022/07/01 04:18:38;;;;;;;4.65;1.27;;;15.80;99.90;;;;;;5042752;28;20036;-79
2022/07/01 04:23:48;;;;;;;3.72;1.02;;;15.80;99.90;;;;;;5033417;28;20048;-79
2022/07/01 04:26:14;;;;;;;5.00;1.13;;;15.80;99.90;;;;;;5049761;28;20044;-79
2022/07/01 04:28:39;;;;;;;6.40;1.30;;;15.80;99.90;;;;;;5043070;28;20048;-79
2022/07/01 04:31:05;;;;;;;4.82;1.48;;;15.80;99.90;;;;;;5026978;28;20036;-79
2022/07/01 04:33:30;;;;;;;4.80;1.50;;;15.80;99.90;;;;;;5044812;28;20048;-80
2022/07/01 04:35:56;;;;;;;7.32;1.50;;;15.90;99.90;;;;;;5033796;28;20037;-79
2022/07/01 04:38:22;;;;;;;4.55;1.30;;;15.90;99.90;;;;;;5032565;28;20059;-79
2022/07/01 04:43:32;;;;;;;4.85;1.20;;;15.90;99.90;;;;;;5058297;28;20495;-79
2022/07/01 04:45:57;;;;;;;5.05;1.38;;;16.00;99.90;;;;;;5067209;28;20040;-80
2022/07/01 04:48:23;;;;;;;4.28;1.30;;;15.90;99.90;;;;;;5043764;28;20470;-79
2022/07/01 04:50:49;;;;;;;10.10;1.85;;;16.00;99.90;;;;;;5044883;28;20407;-80
2022/07/01 04:53:14;;;;;;;8.30;1.63;;;16.00;99.90;;;;;;5042865;28;20040;-80
2022/07/01 04:55:40;;;;;;;6.72;1.63;;;16.00;99.90;;;;;;5026690;28;20075;-80
2022/07/01 04:58:06;;;;;;;6.30;1.40;;;16.10;99.90;;;;;;5018454;28;20157;-80
2022/07/01 05:00:32;;;;;;;5.30;1.38;;;16.00;99.90;;;;;;5022635;28;20408;-79
2022/07/01 05:02:57;;;;;;;7.32;1.60;;;16.10;99.90;;;;;;5008452;28;20047;-81
2022/07/01 05:05:23;;;;;;;4.05;1.40;;;16.10;99.90;;;;;;5041895;28;20495;-81
2022/07/01 05:07:49;;;;;;;6.82;1.83;;;16.20;99.90;;;;;;5007460;28;20123;-81
2022/07/01 05:10:15;;;;;;;6.00;1.50;;;16.20;99.90;;;;;;5021167;28;20480;-82
2022/07/01 05:12:40;;;;;;;5.13;1.42;;;16.20;99.90;;;;;;5028842;28;20131;-83
2022/07/01 05:15:07;;;;;;;7.22;1.70;;;16.30;99.90;;;;;;5023977;28;20514;-82
2022/07/01 05:23:02;;;;;;;5.28;1.73;;;16.40;99.90;;;;;;5023502;28;20045;-81
2022/07/01 05:25:28;;;;;;;4.93;1.63;;;16.40;99.90;;;;;;5027998;28;20387;-82
2022/07/01 05:27:54;;;;;;;6.90;1.83;;;16.40;99.90;;;;;;5021344;28;20060;-81
2022/07/01 05:30:21;;;;;;;6.50;1.50;;;16.50;99.90;;;;;;5027105;28;20056;-82
2022/07/01 05:32:47;;;;;;;5.50;1.63;;;16.50;99.90;;;;;;5022715;28;20045;-82
2022/07/01 05:35:14;;;;;;;6.32;1.92;;;16.50;99.90;;;;;;5006277;28;20097;-82
2022/07/01 05:37:40;;;;;;;6.25;1.60;;;16.60;99.90;;;;;;5009891;28;20044;-82
2022/07/01 05:40:07;;;;;;;6.43;2.00;;;16.60;99.90;;;;;;5023464;28;20048;-82
2022/07/01 05:42:33;;;;;;;8.38;1.90;;;16.60;99.90;;;;;;5020786;28;20484;-82
2022/07/01 05:44:58;;;;;;;5.05;1.83;;;16.70;99.90;;;;;;5006521;28;20045;-81
2022/07/01 05:47:24;;;;;;;6.55;1.50;;;16.70;99.90;;;;;;5041454;28;20910;-82
2022/07/01 05:49:50;;;;;;;6.47;1.90;;;16.70;99.90;;;;;;5026674;28;20503;-82
2022/07/01 05:52:15;;;;;;;5.15;1.50;;;16.70;99.90;;;;;;5030509;28;20128;-81
2022/07/01 05:54:41;;;;;;;8.27;1.55;;;16.70;99.90;;;;;;5041868;28;20184;-82
2022/07/01 05:57:07;;;;;;;6.28;1.80;;;16.70;99.90;;;;;;5040981;28;20535;-82
2022/07/01 05:59:33;;;;;;;6.78;1.75;;;16.70;99.90;;;;;;5029564;28;20495;-81
2022/07/01 06:01:58;;;;;;;5.95;1.55;;;16.40;99.90;;;;;;5076813;28;20109;-82
2022/07/01 06:04:24;;;;;;;7.00;1.52;;;16.70;99.90;;;;;;5061076;28;20048;-81
2022/07/01 06:06:52;;;;;;;4.93;1.55;;;16.70;99.90;;;;;;5030478;28;20056;-82
2022/07/01 06:09:19;;;;;;;6.28;1.55;;;16.60;99.90;;;;;;5053350;28;20137;-84
2022/07/01 06:11:45;;;;;;;6.88;1.42;;;16.70;99.90;;;;;;5060931;28;20044;-81
2022/07/01 06:14:11;;;;;;;7.97;2.13;;;16.80;99.90;;;;;;5063212;28;20143;-83
2022/07/01 06:16:37;;;;;;;7.22;1.73;;;16.80;99.90;;;;;;5051665;28;20399;-84
2022/07/01 06:19:06;;;;;;;5.63;1.95;;;16.80;99.90;;;;;;5053974;28;20048;-83
2022/07/01 06:21:32;;;;;;;6.22;1.55;;;16.80;99.90;;;;;;5060898;28;20043;-82
2022/07/01 06:23:58;;;;;;;6.78;1.80;;;16.90;99.90;;;;;;5061724;28;20695;-82
2022/07/01 06:26:27;;;;;;;7.38;1.55;;;16.90;99.90;;;;;;5045873;28;20055;-82
2022/07/01 06:28:53;;;;;;;5.22;1.52;;;16.90;99.90;;;;;;5050390;28;20052;-83
2022/07/01 06:31:18;;;;;;;6.68;1.30;;;16.90;99.90;;;;;;5051847;28;20101;-82
2022/07/01 06:33:44;;;;;;;3.58;1.20;;;17.00;99.90;;;;;;5061804;28;20078;-83
2022/07/01 06:36:10;;;;;;;5.40;1.20;;;17.00;99.90;;;;;;5078233;28;20102;-82
2022/07/01 06:38:36;;;;;;;5.15;1.60;;;16.90;99.90;;;;;;5047274;28;20122;-82
2022/07/01 06:43:46;;;;;;;8.45;1.77;;;17.00;99.90;;;;;;5052425;28;20110;-81
2022/07/01 06:46:12;;;;;;;4.80;1.70;;;16.90;99.90;;;;;;5061814;28;20041;-82
2022/07/01 06:49:01;;;;;;;6.13;1.90;;;17.00;99.90;;;;;;5080587;28;20495;-88
2022/07/01 06:51:27;;;;;;;7.07;1.38;;;17.00;99.90;;;;;;5063349;28;20047;-81
2022/07/01 06:53:53;;;;;;;6.07;1.40;;;17.00;99.90;;;;;;5047571;28;20049;-81
2022/07/01 06:56:19;;;;;;;4.55;1.70;;;17.00;99.90;;;;;;5047901;28;20067;-81
2022/07/01 06:58:44;;;;;;;4.75;1.42;;;17.10;99.90;;;;;;5032458;28;20416;-81
2022/07/01 07:01:10;;;;;;;5.70;1.77;;;17.10;99.90;;;;;;5018236;28;20131;-81
2022/07/01 07:03:36;;;;;;;3.67;1.40;;;17.10;99.90;;;;;;5026182;28;20079;-81
2022/07/01 07:06:03;;;;;;;6.85;1.60;;;17.10;99.90;;;;;;5024584;28;20115;-81
2022/07/01 07:08:30;;;;;;;4.47;1.33;;;17.10;99.90;;;;;;5027298;28;20098;-83
2022/07/01 07:10:59;;;;;;;4.82;1.48;;;17.10;99.90;;;;;;5031638;28;20036;-85
2022/07/01 07:13:25;;;;;;;4.25;1.35;;;17.10;99.90;;;;;;5045959;28;20056;-84
2022/07/01 07:15:54;;;;;;;6.97;1.40;;;17.20;99.90;;;;;;5037032;28;20093;-86
2022/07/01 07:18:23;;;;;;;3.20;1.30;;;17.20;99.90;;;;;;5027713;28;20052;-88
2022/07/01 07:20:49;;;;;;;5.00;1.20;;;17.10;99.90;;;;;;5005974;28;20044;-85
2022/07/01 07:23:27;;;;;;;5.05;1.20;;;17.20;99.90;;;;;;5030721;28;20059;-87
2022/07/01 07:25:56;;;;;;;6.55;1.38;;;17.20;99.90;;;;;;5031133;28;20139;-86
2022/07/01 07:28:32;;;;;;;4.82;1.40;;;17.20;99.90;;;;;;5044136;28;20178;-85
2022/07/01 07:30:58;;;;;;;5.03;1.60;;;17.00;99.90;;;;;;5011536;28;20045;-84
2022/07/01 07:33:24;;;;;;;6.82;1.30;;;17.10;99.90;;;;;;5051139;28;20055;-84
2022/07/01 07:35:50;;;;;;;7.53;1.50;;;17.10;99.90;;;;;;5008720;28;20373;-85
2022/07/01 07:38:22;;;;;;;5.32;1.17;;;17.10;99.90;;;;;;5033388;28;20449;-84
2022/07/01 07:40:48;;;;;;;3.53;1.17;;;17.10;99.90;;;;;;5026094;28;20504;-83
2022/07/01 07:43:14;;;;;;;5.72;1.00;;;17.10;99.90;;;;;;5028641;28;20045;-82
2022/07/01 07:45:56;;;;;;;5.05;1.17;;;17.20;99.90;;;;;;5029416;28;20056;-88
2022/07/01 07:48:41;;;;;;;5.25;1.25;;;17.20;99.90;;;;;;5005440;28;20101;-86
2022/07/01 07:51:16;;;;;;;4.53;0.98;;;17.00;99.90;;;;;;5017227;28;20055;-85
2022/07/01 07:53:45;;;;;;;6.25;1.25;;;17.40;99.90;;;;;;5030788;28;20037;-85
2022/07/01 07:56:11;;;;;;;31.00;2.58;;;17.70;99.90;;;;;;5039258;28;20091;-82
2022/07/01 07:58:36;;;;;;;4.97;1.10;;;17.50;99.90;;;;;;5030295;28;20510;-85
2022/07/01 08:01:04;;;;;;;5.40;1.20;;;17.70;99.90;;;;;;5026355;28;20135;-83
2022/07/01 08:03:30;;;;;;;4.22;1.00;;;17.90;99.90;;;;;;5057046;28;20047;-82
2022/07/01 08:06:02;;;;;;;3.20;0.90;;;18.00;99.90;;;;;;5040923;28;20040;-88
2022/07/01 08:08:33;;;;;;;6.00;0.93;;;17.60;99.90;;;;;;5035947;28;20123;-86
2022/07/01 08:11:43;;;;;;;2.88;0.90;;;17.40;99.90;;;;;;5049098;28;20040;-87
2022/07/01 08:14:38;;;;;;;3.28;0.70;;;17.80;99.90;;;;;;5067721;28;20079;-89
2022/07/01 08:17:04;;;;;;;5.00;0.98;;;17.70;99.90;;;;;;5046978;28;20045;-84
2022/07/01 08:19:30;;;;;;;3.47;0.80;;;18.00;99.90;;;;;;5045613;28;20047;-84
2022/07/01 08:21:56;;;;;;;3.08;0.90;;;18.20;99.90;;;;;;5030577;28;20042;-84
2022/07/01 08:24:22;;;;;;;2.17;0.80;;;18.30;99.90;;;;;;5044728;28;20044;-84
2022/07/01 08:26:48;;;;;;;2.63;0.75;;;18.50;99.90;;;;;;5034455;28;20040;-84
2022/07/01 08:29:14;;;;;;;4.40;1.13;;;18.60;99.90;;;;;;5035604;28;20093;-83
2022/07/01 08:31:42;;;;;;;2.55;0.77;;;19.00;99.90;;;;;;5050078;28;20048;-84
2022/07/01 08:34:10;;;;;;;4.03;0.80;;;19.30;99.90;;;;;;5057422;28;20430;-83
2022/07/01 08:36:36;;;;;;;9.10;6.47;;;19.50;99.90;;;;;;5049945;28;20109;-85
2022/07/01 08:39:03;;;;;;;8.90;4.22;;;19.60;99.90;;;;;;5044357;28;20051;-84
2022/07/01 08:41:34;;;;;;;2.15;0.70;;;19.90;99.90;;;;;;5043878;28;20058;-83
2022/07/01 08:44:00;;;;;;;4.40;1.10;;;19.80;99.90;;;;;;5042218;28;20037;-84
2022/07/01 08:46:31;;;;;;;2.83;0.93;;;20.10;99.90;;;;;;5031682;28;20047;-83
2022/07/01 08:48:57;;;;;;;2.17;1.00;;;20.10;99.90;;;;;;5050218;28;20052;-85
2022/07/01 08:51:23;;;;;;;2.35;0.70;;;20.10;99.90;;;;;;5051018;28;20048;-85
2022/07/01 08:53:49;;;;;;;1.70;0.70;;;20.20;99.90;;;;;;5058546;28;20048;-84
2022/07/01 08:58:59;;;;;;;2.33;0.60;;;21.00;99.90;;;;;;5057346;28;20143;-85
2022/07/01 09:01:25;;;;;;;3.10;0.90;;;20.80;99.90;;;;;;5066236;28;20135;-84
2022/07/01 09:03:54;;;;;;;3.15;0.82;;;21.10;99.90;;;;;;5050043;28;20043;-85
2022/07/01 09:06:28;;;;;;;3.42;0.80;;;21.00;99.90;;;;;;5059980;28;20631;-83
2022/07/01 09:08:54;;;;;;;3.55;1.20;;;21.20;99.90;;;;;;5043019;28;20044;-84
2022/07/01 09:11:26;;;;;;;5.03;1.77;;;21.10;99.90;;;;;;5059015;28;20095;-85
2022/07/01 09:14:09;;;;;;;2.85;1.00;;;21.20;99.90;;;;;;5047263;28;20044;-85
2022/07/01 09:16:43;;;;;;;2.30;0.90;;;21.10;99.90;;;;;;5050160;28;20048;-85
2022/07/01 09:19:10;;;;;;;8.48;2.03;;;20.90;99.90;;;;;;5043955;28;20067;-84
2022/07/01 09:21:38;;;;;;;5.38;0.93;;;20.80;99.90;;;;;;5043129;28;20047;-84
2022/07/01 09:24:27;;;;;;;4.32;1.50;;;20.50;99.90;;;;;;5057305;28;20124;-85
2022/07/01 09:27:04;;;;;;;2.78;0.90;;;20.20;99.90;;;;;;5046107;28;20055;-84
2022/07/01 09:29:38;;;;;;;3.40;1.02;;;20.20;99.90;;;;;;5048425;28;20160;-84
2022/07/01 09:32:09;;;;;;;4.55;1.00;;;20.20;99.90;;;;;;5049310;28;20048;-86
2022/07/01 09:34:42;;;;;;;2.83;1.13;;;20.00;99.90;;;;;;5061418;28;20041;-85
2022/07/01 09:37:10;;;;;;;2.45;1.10;;;20.10;99.90;;;;;;5058875;28;20075;-83
2022/07/01 09:39:47;;;;;;;3.33;1.00;;;20.30;99.90;;;;;;5031303;28;20568;-84
2022/07/01 09:42:14;;;;;;;3.30;0.85;;;20.50;99.90;;;;;;5046006;28;20123;-84
2022/07/01 09:45:02;;;;;;;3.00;1.10;;;20.60;99.90;;;;;;5066152;28;20101;-84
2022/07/01 09:47:29;;;;;;;4.22;0.90;;;20.80;99.90;;;;;;5063136;28;20048;-84
2022/07/01 09:49:59;;;;;;;3.45;1.00;;;20.80;99.90;;;;;;5026815;28;20066;-84
2022/07/01 09:52:25;;;;;;;3.08;1.00;;;20.90;99.90;;;;;;5051047;28;20056;-84
2022/07/01 09:54:54;;;;;;;3.05;1.17;;;20.60;99.90;;;;;;5046852;28;20462;-84
2022/07/01 09:57:21;;;;;;;4.35;1.00;;;20.40;99.90;;;;;;5050302;28;20087;-85
2022/07/01 09:59:49;;;;;;;5.63;1.25;;;20.10;99.90;;;;;;5060159;28;20128;-81
2022/07/01 10:02:18;;;;;;;2.65;0.90;;;20.20;99.90;;;;;;5040024;28;20044;-82
2022/07/01 10:04:51;;;;;;;3.55;0.90;;;20.30;99.90;;;;;;5041871;28;20045;-81
2022/07/01 10:07:45;;;;;;;2.47;1.00;;;20.60;99.90;;;;;;5061384;28;20491;-81
2022/07/01 10:10:35;;;;;;;2.63;0.88;;;20.80;99.90;;;;;;5048233;28;20597;-81
2022/07/01 10:13:04;;;;;;;3.83;1.02;;;20.90;99.90;;;;;;5054770;28;20090;-82
2022/07/01 10:15:31;;;;;;;1.80;0.90;;;20.90;99.90;;;;;;5055895;28;20044;-81
2022/07/01 10:17:57;;;;;;;3.17;0.90;;;20.70;99.90;;;;;;5053192;28;20040;-79
2022/07/01 10:20:28;;;;;;;3.53;0.88;;;20.40;99.90;;;;;;5039953;28;20117;-80
2022/07/01 10:23:06;;;;;;;2.08;0.88;;;20.60;99.90;;;;;;5040795;28;20474;-81
2022/07/01 10:25:33;;;;;;;2.97;0.75;;;20.90;99.90;;;;;;5038298;28;20051;-80
2022/07/01 10:28:21;;;;;;;3.67;1.08;;;21.20;99.90;;;;;;5052307;28;20036;-79
2022/07/01 10:31:05;;;;;;;2.65;0.73;;;21.40;99.90;;;;;;5056204;28;20541;-78
2022/07/01 10:33:50;;;;;;;3.08;0.90;;;21.50;99.90;;;;;;5042578;28;20040;-78
2022/07/01 10:36:16;;;;;;;3.03;0.80;;;21.90;99.90;;;;;;5060596;28;20032;-79
2022/07/01 10:39:06;;;;;;;2.60;0.68;;;21.60;99.90;;;;;;5044510;28;20091;-79
2022/07/01 10:41:42;;;;;;;2.90;0.88;;;21.50;99.90;;;;;;5062231;28;20139;-79
2022/07/01 10:44:09;;;;;;;;;;;21.70;99.90;;;;;;5045526;28;20097;-80
2022/07/01 10:46:47;;;;;;;2.45;0.70;;;21.60;99.90;;;;;;5047766;28;19924;-79
2022/07/01 10:49:40;;;;;;;3.33;0.88;;;21.80;99.90;;;;;;5042304;28;20048;-78
2022/07/01 10:52:11;;;;;;;2.30;0.70;;;21.90;99.90;;;;;;5045824;28;20399;-78
2022/07/01 10:54:36;;;;;;;2.50;0.63;;;22.00;99.90;;;;;;5046846;28;20087;-80
2022/07/01 10:57:18;;;;;;;4.30;0.90;;;22.10;99.90;;;;;;5041523;28;20076;-80
2022/07/01 10:59:54;;;;;;;2.45;0.90;;;22.20;99.90;;;;;;5039435;28;20052;-81
2022/07/01 11:02:25;;;;;;;2.92;0.60;;;22.60;99.90;;;;;;5054081;28;20052;-81
2022/07/01 11:04:53;;;;;;;1.83;0.60;;;22.50;99.90;;;;;;5056818;28;20119;-81
2022/07/01 11:07:20;;;;;;;2.22;0.80;;;22.60;99.90;;;;;;5038482;28;20059;-80
2022/07/01 11:09:45;;;;;;;2.35;0.82;;;22.50;99.90;;;;;;5039386;28;20215;-82
2022/07/01 11:12:16;;;;;;;3.25;0.80;;;22.30;99.90;;;;;;5028388;28;20044;-83
2022/07/01 11:14:44;;;;;;;3.67;0.77;;;22.30;99.90;;;;;;5040846;28;20036;-83
2022/07/01 11:17:10;;;;;;;2.33;0.68;;;22.50;99.90;;;;;;5040466;28;20044;-81
2022/07/01 11:19:36;;;;;;;7.95;1.13;;;22.60;99.90;;;;;;5056341;28;20498;-82
2022/07/01 11:22:02;;;;;;;2.25;0.73;;;23.00;99.90;;;;;;5039078;28;20055;-83
2022/07/01 11:24:31;;;;;;;3.95;0.88;;;23.10;99.90;;;;;;5037337;28;20040;-86
2022/07/01 11:27:27;;;;;;;2.42;0.77;;;23.20;99.90;;;;;;5055257;28;20070;-92
2022/07/01 11:30:01;;;;;;;4.10;0.88;;;23.70;99.80;;;;;;5045112;28;20601;-92
2022/07/01 11:32:31;;;;;;;3.33;0.70;;;22.70;99.90;;;;;;5046233;28;20141;-89
2022/07/01 11:41:09;;;;;;;3.80;0.98;;;22.50;99.90;;;;;;5074877;28;20079;-92
2022/07/01 11:43:48;;;;;;;;;;;;;;;;;;;;;
2022/07/01 11:46:32;;;;;;;4.45;1.02;;;22.70;99.90;;;;;;5078852;28;20060;-92
2022/07/01 11:49:23;;;;;;;8.45;1.27;;;22.70;99.90;;;;;;5085088;28;20081;-87
2022/07/01 11:52:23;;;;;;;12.35;1.40;;;23.00;99.40;;;;;;5163016;22;20511;-87
2022/07/01 11:55:00;;;;;;;4.70;1.15;;;23.20;99.10;;;;;;5021297;28;20461;-90
2022/07/01 11:58:24;;;;;;;4.13;1.25;;;23.30;98.90;;;;;;5055492;28;20043;-96
2022/07/01 12:01:13;;;;;;;;;;;;;;;;;;;;;
2022/07/01 12:03:50;;;;;;;3.22;0.80;;;23.70;99.00;;;;;;5050529;28;20036;-90
2022/07/01 12:06:20;;;;;;;4.22;0.90;;;23.50;98.50;;;;;;5067863;22;20052;-90
2022/07/01 12:08:53;;;;;;;4.30;1.13;;;24.10;98.20;;;;;;5026987;28;20109;-90
2022/07/01 12:11:42;;;;;;;2.83;0.93;;;24.10;97.70;;;;;;5035696;28;20045;-91
2022/07/01 12:14:32;;;;;;;;;;;;;;;;;;;;;
2022/07/01 12:17:11;;;;;;;3.17;0.90;;;24.00;97.10;;;;;;5042821;28;20045;-89
2022/07/01 12:19:47;;;;;;;5.55;1.30;;;24.20;97.70;;;;;;5034638;28;20052;-92
2022/07/01 12:22:26;;;;;;;4.60;0.95;;;24.20;98.10;;;;;;5023488;28;20374;-86
2022/07/01 12:25:06;;;;;;;3.22;1.10;;;24.80;97.20;;;;;;5025308;28;20080;-85
2022/07/01 12:27:37;;;;;;;4.82;0.95;;;24.70;95.80;;;;;;5023637;28;20447;-83
2022/07/01 12:30:11;;;;;;;4.35;0.93;;;24.50;96.60;;;;;;5037486;28;20385;-88
2022/07/01 12:32:39;;;;;;;4.72;0.98;;;24.20;97.00;;;;;;5025387;28;20068;-82
2022/07/01 12:37:52;;;;;;;3.50;0.90;;;24.40;97.40;;;;;;5036018;28;20419;-82
2022/07/01 12:40:24;;;;;;;4.90;1.50;;;24.40;97.30;;;;;;5018743;28;20045;-82
2022/07/01 12:42:50;;;;;;;3.95;0.80;;;24.60;97.40;;;;;;5037108;28;20068;-82
2022/07/01 12:45:21;;;;;;;4.32;1.00;;;24.70;97.30;;;;;;5004332;28;20049;-81
2022/07/01 12:47:52;;;;;;;4.80;0.98;;;24.30;96.60;;;;;;5023057;28;20037;-82
2022/07/01 12:50:22;;;;;;;4.15;1.25;;;24.20;97.00;;;;;;5019640;28;20051;-82
2022/07/01 12:53:11;;;;;;;3.03;0.82;;;24.30;97.10;;;;;;5039380;28;20052;-82
2022/07/01 12:55:51;;;;;;;8.30;1.40;;;24.40;97.30;;;;;;5022694;28;20051;-82
2022/07/01 12:58:22;;;;;;;3.85;1.08;;;24.40;96.70;;;;;;5036131;28;20491;-82
2022/07/01 13:00:51;;;;;;;5.53;1.50;;;24.40;96.90;;;;;;5037472;28;20395;-82
2022/07/01 13:03:25;;;;;;;4.57;1.00;;;24.40;96.90;;;;;;5033106;28;20048;-82
2022/07/01 13:05:52;;;;;;;3.30;1.05;;;24.40;95.80;;;;;;5042688;28;20051;-83
2022/07/01 13:08:19;;;;;;;4.20;0.98;;;24.30;96.00;;;;;;5034001;28;20052;-82
2022/07/01 13:10:46;;;;;;;5.70;1.10;;;24.30;96.00;;;;;;5054231;28;20067;-82
2022/07/01 13:13:14;;;;;;;4.20;1.42;;;24.40;96.10;;;;;;5036305;28;20047;-82
2022/07/01 13:15:40;;;;;;;4.78;1.20;;;24.50;96.50;;;;;;5036136;28;20052;-82
2022/07/01 13:18:08;;;;;;;4.25;1.25;;;24.60;96.30;;;;;;5040224;28;20483;-82
2022/07/01 13:20:34;;;;;;;4.25;0.80;;;24.60;95.90;;;;;;5023944;28;20063;-82
2022/07/01 13:23:00;;;;;;;4.22;1.20;;;24.80;95.50;;;;;;5040785;28;20048;-84
2022/07/01 13:25:27;;;;;;;4.15;1.17;;;24.60;95.20;;;;;;5054446;28;20109;-82
2022/07/01 13:27:53;;;;;;;4.25;1.08;;;24.60;95.40;;;;;;5057789;28;20513;-81
2022/07/01 13:30:19;;;;;;;3.72;0.82;;;24.70;95.90;;;;;;5037815;28;20040;-82